Terminal Aerodrome Forecast
Issued by NWS Quad Cities IA IL

Home | Current Version | Previous Version | Text Only | Print | Product List | Glossary On
Versions: 1 2 3 4 5 6 7 8 9 10 11 12 13 14 15 16
000
FTUS43 KDVN 300520
TAFDBQ
TAF
KDBQ 300520Z 3006/3106 25007KT P6SM SKC
     FM301200 27007KT P6SM SKC
     FM301700 28013G19KT P6SM FEW070 FEW200
     FM310000 28007KT P6SM FEW200=

USA.gov is the U.S. government's official web portal to all federal, state and local government web resources and services.